createdAt,value
2022-08-01T00:02:58.960Z,20.90
2022-08-01T00:08:03.849Z,21.00
2022-08-01T00:13:07.435Z,21.00
2022-08-01T00:18:10.930Z,21.00
2022-08-01T00:23:15.851Z,21.00
2022-08-01T00:28:19.218Z,20.90
2022-08-01T00:33:22.324Z,21.00
2022-08-01T00:38:27.420Z,21.10
2022-08-01T00:43:31.095Z,21.10
2022-08-01T00:48:34.584Z,21.20
2022-08-01T00:53:51.152Z,21.10
2022-08-01T00:58:55.787Z,21.00
2022-08-01T01:04:00.254Z,21.00
2022-08-01T01:09:17.578Z,20.90
2022-08-01T01:14:24.616Z,20.90
2022-08-01T01:19:31.273Z,20.90
2022-08-01T01:24:40.563Z,21.00
2022-08-01T01:29:58.775Z,21.00
2022-08-01T01:35:05.803Z,21.00
2022-08-01T01:40:10.006Z,21.00
2022-08-01T01:45:15.160Z,21.00
2022-08-01T01:50:19.599Z,21.00
2022-08-01T01:55:24.497Z,21.00
2022-08-01T02:00:30.363Z,21.00
2022-08-01T02:05:35.391Z,21.00
2022-08-01T02:10:39.356Z,21.00
2022-08-01T02:16:00.090Z,21.00
2022-08-01T02:21:06.007Z,20.80
2022-08-01T02:26:11.762Z,20.60
2022-08-01T02:31:18.752Z,20.50
2022-08-01T02:36:29.159Z,20.50
2022-08-01T02:41:35.819Z,20.50
2022-08-01T02:46:41.930Z,20.40
2022-08-01T02:51:48.613Z,20.30
2022-08-01T02:56:52.332Z,20.20
2022-08-01T03:01:58.040Z,20.30
2022-08-01T03:07:04.438Z,20.30
2022-08-01T03:12:11.526Z,20.30
2022-08-01T03:17:17.348Z,20.30
2022-08-01T03:22:22.405Z,20.30
2022-08-01T03:27:26.454Z,20.40
2022-08-01T03:32:32.101Z,20.30
2022-08-01T03:37:37.714Z,20.20
2022-08-01T03:42:43.886Z,20.10
2022-08-01T03:47:54.711Z,20.10
2022-08-01T03:52:59.615Z,20.20
2022-08-01T03:58:07.072Z,20.30
2022-08-01T04:03:14.792Z,20.40
2022-08-01T04:08:18.237Z,20.30
2022-08-01T04:13:21.660Z,20.20
2022-08-01T04:18:26.616Z,20.20
2022-08-01T04:23:32.854Z,20.20
2022-08-01T04:28:37.637Z,20.20
2022-08-01T04:33:44.270Z,20.30
2022-08-01T04:38:48.789Z,20.30
2022-08-01T04:43:52.862Z,20.30
2022-08-01T04:48:58.230Z,20.20
2022-08-01T04:54:02.395Z,20.10
2022-08-01T04:59:37.673Z,20.10
2022-08-01T05:04:43.125Z,20.10
2022-08-01T05:09:47.243Z,20.20
2022-08-01T05:14:50.266Z,20.30
2022-08-01T05:19:54.929Z,20.50
2022-08-01T05:24:58.156Z,20.90
2022-08-01T05:30:02.880Z,21.20
2022-08-01T05:35:08.958Z,21.30
2022-08-01T05:40:12.651Z,21.30
2022-08-01T05:45:16.273Z,21.60
2022-08-01T05:50:21.095Z,22.00
2022-08-01T05:55:24.712Z,22.30
2022-08-01T06:00:27.957Z,22.50
2022-08-01T06:05:32.541Z,22.80
2022-08-01T06:10:35.750Z,22.90
2022-08-01T06:15:39.189Z,22.80
2022-08-01T06:20:44.211Z,23.00
2022-08-01T06:25:47.227Z,22.90
2022-08-01T06:30:50.779Z,22.80
2022-08-01T06:35:56.404Z,22.60
2022-08-01T06:40:59.475Z,22.50
2022-08-01T06:46:03.091Z,22.80
2022-08-01T06:51:14.389Z,22.80
2022-08-01T06:56:17.793Z,22.90
2022-08-01T07:01:21.361Z,22.90
2022-08-01T07:06:26.776Z,23.00
2022-08-01T07:11:30.280Z,22.90
2022-08-01T07:16:33.481Z,23.20
2022-08-01T07:21:39.850Z,23.30
2022-08-01T07:26:53.595Z,23.50
2022-08-01T07:31:59.144Z,23.80
2022-08-01T07:37:04.010Z,24.50
2022-08-01T07:42:08.495Z,24.80
2022-08-01T07:47:12.033Z,24.60
2022-08-01T07:52:17.108Z,23.80
2022-08-01T07:57:20.826Z,22.50
2022-08-01T08:02:24.478Z,20.90
2022-08-01T08:07:29.420Z,20.50
2022-08-01T08:12:32.811Z,20.60
2022-08-01T08:17:36.879Z,21.20
2022-08-01T08:22:41.752Z,21.30
2022-08-01T08:27:45.226Z,21.40
2022-08-01T08:32:48.917Z,21.70
2022-08-01T08:37:55.913Z,22.40
2022-08-01T08:43:01.988Z,22.40
2022-08-01T08:48:07.570Z,22.50
2022-08-01T08:53:18.496Z,22.60
2022-08-01T08:58:26.365Z,22.90
2022-08-01T09:03:35.314Z,23.30
2022-08-01T09:08:40.358Z,23.60
2022-08-01T09:13:45.303Z,24.10
2022-08-01T09:18:52.808Z,24.10
2022-08-01T09:23:59.855Z,23.30
2022-08-01T09:29:04.856Z,23.70
2022-08-01T09:34:14.084Z,24.00
2022-08-01T09:39:19.519Z,24.30
2022-08-01T09:44:42.349Z,24.50
2022-08-01T09:49:50.830Z,24.50
2022-08-01T09:54:57.435Z,23.90
2022-08-01T10:00:02.205Z,25.00
2022-08-01T10:05:21.137Z,25.00
2022-08-01T10:10:28.723Z,25.10
2022-08-01T10:15:37.181Z,24.70
2022-08-01T10:20:41.819Z,24.70
2022-08-01T10:25:47.716Z,25.10
2022-08-01T10:30:51.056Z,25.10
2022-08-01T10:35:55.685Z,25.00
2022-08-01T10:41:01.608Z,25.00
2022-08-01T10:46:10.632Z,25.30
2022-08-01T10:51:18.451Z,25.80
2022-08-01T10:56:27.216Z,26.20
2022-08-01T11:01:33.324Z,26.20
2022-08-01T11:06:50.937Z,26.30
2022-08-01T11:12:08.254Z,26.10
2022-08-01T11:17:37.501Z,25.60
2022-08-01T11:23:15.003Z,25.90
2022-08-01T11:28:30.133Z,26.00
2022-08-01T11:33:50.307Z,26.40
2022-08-01T11:39:15.384Z,26.40
2022-08-01T11:44:24.749Z,26.50
2022-08-01T11:49:30.987Z,26.50
2022-08-01T11:54:36.180Z,26.50
2022-08-01T12:00:02.455Z,27.10
2022-08-01T12:10:23.941Z,26.30
2022-08-01T12:15:36.853Z,26.00
2022-08-01T12:20:55.742Z,26.20
2022-08-01T12:26:01.420Z,26.20
2022-08-01T12:31:06.223Z,26.20
2022-08-01T12:36:09.952Z,25.90
2022-08-01T12:41:19.550Z,26.10
2022-08-01T12:46:27.425Z,26.50
2022-08-01T12:51:30.841Z,26.50
2022-08-01T12:56:35.273Z,26.30
2022-08-01T13:01:41.675Z,26.20
2022-08-01T13:06:45.558Z,26.10
2022-08-01T13:11:54.029Z,26.10
2022-08-01T13:17:09.522Z,26.60
2022-08-01T13:22:19.831Z,26.70
2022-08-01T13:27:26.693Z,26.50
2022-08-01T13:32:32.525Z,26.40
2022-08-01T13:37:37.068Z,26.40
2022-08-01T13:42:41.926Z,26.60
2022-08-01T13:48:11.777Z,26.40
2022-08-01T13:53:12.443Z,26.30
2022-08-01T13:58:15.941Z,26.50
2022-08-01T14:03:21.045Z,26.20
2022-08-01T14:08:37.350Z,26.00
2022-08-01T14:13:45.205Z,26.40
2022-08-01T14:18:52.146Z,26.50
2022-08-01T14:23:55.906Z,26.60
2022-08-01T14:28:59.057Z,26.30
2022-08-01T14:34:04.074Z,26.40
2022-08-01T14:39:07.285Z,26.40
2022-08-01T14:44:18.292Z,26.40
2022-08-01T14:49:23.477Z,26.10
2022-08-01T14:54:29.496Z,26.10
2022-08-01T14:59:33.154Z,25.90
2022-08-01T15:04:37.639Z,25.80
2022-08-01T15:09:41.318Z,25.60
2022-08-01T15:14:51.372Z,25.70
2022-08-01T15:19:56.364Z,25.90
2022-08-01T15:25:00.382Z,26.00
2022-08-01T15:30:05.175Z,26.10
2022-08-01T15:35:11.599Z,25.90
2022-08-01T15:40:15.059Z,26.00
2022-08-01T15:45:45.805Z,26.10
2022-08-01T15:50:45.133Z,25.90
2022-08-01T15:55:52.348Z,25.90
2022-08-01T16:00:56.393Z,25.90
2022-08-01T16:06:01.163Z,25.90
2022-08-01T16:11:04.743Z,26.00
2022-08-01T16:16:09.112Z,25.90
2022-08-01T16:21:14.275Z,25.90
2022-08-01T16:26:27.964Z,25.80
2022-08-01T16:31:41.756Z,25.70
2022-08-01T16:36:57.710Z,25.70
2022-08-01T16:42:01.541Z,26.20
2022-08-01T16:47:05.814Z,26.50
2022-08-01T16:52:10.705Z,26.70
2022-08-01T16:57:14.633Z,26.60
2022-08-01T17:02:18.456Z,26.40
2022-08-01T17:07:23.463Z,25.90
2022-08-01T17:12:26.746Z,25.80
2022-08-01T17:17:30.108Z,25.60
2022-08-01T17:22:35.098Z,25.60
2022-08-01T17:27:38.669Z,25.70
2022-08-01T17:32:45.720Z,25.60
2022-08-01T17:37:50.644Z,25.30
2022-08-01T17:42:53.926Z,25.20
2022-08-01T17:47:57.453Z,25.00
2022-08-01T17:53:02.262Z,24.90
2022-08-01T17:58:06.446Z,24.60
2022-08-01T18:03:10.003Z,24.30
2022-08-01T18:08:15.543Z,24.10
2022-08-01T18:13:21.725Z,24.10
2022-08-01T18:18:33.495Z,24.00
2022-08-01T18:23:38.332Z,24.00
2022-08-01T18:28:46.754Z,23.80
2022-08-01T18:33:50.619Z,23.60
2022-08-01T18:38:55.240Z,23.40
2022-08-01T18:44:03.898Z,23.20
2022-08-01T18:49:10.668Z,23.10
2022-08-01T18:54:16.132Z,22.90
2022-08-01T18:59:20.362Z,22.70
2022-08-01T19:04:23.678Z,22.60
2022-08-01T19:09:28.725Z,22.50
2022-08-01T19:14:32.403Z,22.30
2022-08-01T19:19:36.446Z,22.20
2022-08-01T19:24:48.102Z,22.00
2022-08-01T19:29:54.859Z,22.30
2022-08-01T19:35:03.213Z,21.60
2022-08-01T19:40:08.661Z,21.50
2022-08-01T19:45:12.127Z,21.40
2022-08-01T19:50:15.305Z,21.20
2022-08-01T19:55:19.953Z,21.10
2022-08-01T20:00:28.284Z,21.10
2022-08-01T20:05:32.203Z,21.10
2022-08-01T20:10:38.522Z,21.10
2022-08-01T20:15:43.828Z,20.90
2022-08-01T20:20:48.144Z,20.80
2022-08-01T20:25:58.368Z,20.80
2022-08-01T20:31:05.416Z,20.80
2022-08-01T20:36:12.347Z,20.90
2022-08-01T20:41:30.138Z,20.90
2022-08-01T20:46:33.701Z,20.80
2022-08-01T20:51:42.326Z,20.70
2022-08-01T20:56:52.450Z,20.60
2022-08-01T21:01:58.799Z,20.50
2022-08-01T21:07:04.627Z,20.30
2022-08-01T21:12:12.734Z,20.40
2022-08-01T21:17:18.432Z,20.10
2022-08-01T21:22:27.160Z,19.90
2022-08-01T21:28:17.382Z,19.60
2022-08-01T21:45:19.197Z,19.60
2022-08-01T21:50:23.373Z,19.60
2022-08-01T22:01:59.728Z,19.30
2022-08-01T22:07:28.204Z,19.20
2022-08-01T22:13:12.808Z,19.00
2022-08-01T22:18:32.944Z,18.90
2022-08-01T22:23:38.545Z,18.80
2022-08-01T22:29:14.594Z,18.90
2022-08-01T22:34:20.327Z,18.90
2022-08-01T22:39:50.608Z,18.90
2022-08-01T22:51:35.508Z,16.60
2022-08-01T22:57:27.935Z,20.70
2022-08-01T23:03:53.633Z,17.70
2022-08-01T23:10:01.455Z,19.90
2022-08-01T23:15:08.265Z,19.50
2022-08-01T23:20:12.033Z,19.60
2022-08-01T23:25:16.217Z,19.60
2022-08-01T23:30:21.014Z,19.60
2022-08-01T23:35:24.479Z,19.70
2022-08-01T23:40:28.247Z,19.70
2022-08-01T23:46:01.784Z,19.70
2022-08-01T23:50:57.103Z,19.70
2022-08-01T23:56:02.583Z,19.70
